Time;durP1;ratioP1;P1;durP2;ratioP2;P2;SDS_P1;SDS_P2;PMS_P1;PMS_P2;Temp;Humidity;BMP_temperature;BMP_pressure;BME280_temperature;BME280_humidity;BME280_pressure;Samples;Min_cycle;Max_cycle;Signal;HPM_P1;HPM_P2
2022/06/22 00:02:29;;;;;;;5.20;2.70;;;;;;;;;;4837690;29;20053;-79
2022/06/22 00:05:13;;;;;;;4.40;2.70;;;;;;;;;;4835822;29;20061;-78
2022/06/22 00:07:43;;;;;;;3.58;2.50;;;;;;;;;;4852268;29;20485;-79
2022/06/22 00:10:43;;;;;;;6.13;2.75;;;;;;;;;;4851707;29;20619;-79
2022/06/22 00:13:16;;;;;;;4.88;2.90;;;;;;;;;;4809508;29;20069;-78
2022/06/22 00:15:57;;;;;;;6.15;2.88;;;;;;;;;;4835272;29;20049;-78
2022/06/22 00:18:31;;;;;;;4.03;2.72;;;;;;;;;;4833603;29;21273;-79
2022/06/22 00:21:22;;;;;;;3.30;2.97;;;;;;;;;;4823929;29;20054;-78
2022/06/22 00:23:51;;;;;;;3.25;2.88;;;;;;;;;;4835118;29;20557;-78
2022/06/22 00:26:24;;;;;;;3.20;2.88;;;;;;;;;;4836609;29;20041;-78
2022/06/22 00:29:01;;;;;;;3.30;3.10;;;;;;;;;;4826553;29;20399;-79
2022/06/22 00:31:52;;;;;;;3.97;3.00;;;;;;;;;;4824832;29;20101;-79
2022/06/22 00:34:27;;;;;;;4.28;3.00;;;;;;;;;;4812168;29;20065;-78
2022/06/22 00:37:03;;;;;;;3.80;3.40;;;;;;;;;;4847564;29;20045;-78
2022/06/22 00:39:30;;;;;;;4.18;2.90;;;;;;;;;;4822151;29;20503;-78
2022/06/22 00:42:14;;;;;;;5.75;3.03;;;;;;;;;;4851875;29;20501;-78
2022/06/22 00:44:47;;;;;;;3.67;3.35;;;;;;;;;;4837948;29;20113;-78
2022/06/22 00:47:35;;;;;;;3.22;2.92;;;;;;;;;;4846026;29;20041;-78
2022/06/22 00:50:14;;;;;;;3.90;3.45;;;;;;;;;;4845553;29;20042;-78
2022/06/22 00:52:51;;;;;;;4.78;3.80;;;;;;;;;;4837024;29;20076;-78
2022/06/22 00:55:30;;;;;;;4.07;3.75;;;;;;;;;;4832355;29;20041;-79
2022/06/22 00:58:10;;;;;;;4.40;4.00;;;;;;;;;;4841117;29;20053;-79
2022/06/22 01:00:40;;;;;;;5.90;3.63;;;;;;;;;;4860677;29;20049;-77
2022/06/22 01:03:17;;;;;;;5.13;3.30;;;;;;;;;;4861200;29;20084;-78
2022/06/22 01:05:52;;;;;;;4.03;3.63;;;;;;;;;;4823073;29;20136;-78
2022/06/22 01:08:32;;;;;;;3.60;3.28;;;;;;;;;;4842789;29;20110;-78
2022/06/22 01:11:03;;;;;;;6.40;3.38;;;;;;;;;;4846318;29;20052;-77
2022/06/22 01:13:36;;;;;;;6.40;3.65;;;;;;;;;;4866983;29;20041;-78
2022/06/22 01:16:06;;;;;;;4.43;3.78;;;;;;;;;;4858322;29;20058;-78
2022/06/22 01:18:34;;;;;;;4.13;3.72;;;;;;;;;;4864401;29;20056;-78
2022/06/22 01:21:14;;;;;;;7.22;3.95;;;;;;;;;;4861850;29;20052;-77
2022/06/22 01:24:01;;;;;;;3.65;3.20;;;;;;;;;;4863489;29;20057;-78
2022/06/22 01:26:31;;;;;;;3.67;3.38;;;;;;;;;;4840623;29;20049;-78
2022/06/22 01:29:01;;;;;;;4.38;3.60;;;;;;;;;;4836892;29;20061;-78
2022/06/22 01:31:29;;;;;;;4.38;3.50;;;;;;;;;;4876316;29;20509;-78
2022/06/22 01:33:56;;;;;;;3.05;2.75;;;;;;;;;;4854551;29;20042;-78
2022/06/22 01:36:25;;;;;;;4.50;3.50;;;;;;;;;;4859897;29;20136;-78
2022/06/22 01:38:53;;;;;;;6.38;4.10;;;;;;;;;;4842885;29;20455;-77
2022/06/22 01:41:20;;;;;;;4.28;3.72;;;;;;;;;;4856052;29;20418;-79
2022/06/22 01:44:01;;;;;;;4.15;3.33;;;;;;;;;;4842646;29;20850;-78
2022/06/22 01:46:47;;;;;;;5.75;4.55;;;;;;;;;;4838562;29;20057;-78
2022/06/22 01:49:17;;;;;;;7.53;4.10;;;;;;;;;;4857827;29;20133;-78
2022/06/22 01:51:55;;;;;;;5.68;4.40;;;;;;;;;;4856846;29;20094;-78
2022/06/22 01:54:30;;;;;;;4.95;3.80;;;;;;;;;;4838575;29;20137;-79
2022/06/22 01:57:00;;;;;;;5.90;3.60;;;;;;;;;;4841558;29;20041;-78
2022/06/22 01:59:38;;;;;;;3.67;3.20;;;;;;;;;;4843411;29;20478;-78
2022/06/22 02:02:09;;;;;;;4.93;4.30;;;;;;;;;;4859857;29;20080;-78
2022/06/22 02:04:42;;;;;;;6.18;3.88;;;;;;;;;;4840777;29;20066;-78
2022/06/22 02:10:07;;;;;;;4.45;4.05;;;;;;;;;;4858312;29;20045;-77
2022/06/22 02:12:40;;;;;;;4.85;3.80;;;;;;;;;;4837109;29;20525;-77
2022/06/22 02:15:28;;;;;;;4.67;4.20;;;;;;;;;;4837522;29;21226;-78
2022/06/22 02:17:55;;;;;;;7.63;3.88;;;;;;;;;;4856860;29;20285;-78
2022/06/22 02:20:32;;;;;;;5.03;4.40;;;;;;;;;;4854887;29;20073;-78
2022/06/22 02:23:20;;;;;;;4.45;3.78;;;;;;;;;;4857781;29;20091;-78
2022/06/22 02:25:50;;;;;;;5.82;4.18;;;;;;;;;;4824221;29;20056;-77
2022/06/22 02:28:17;;;;;;;5.32;3.78;;;;;;;;;;4839684;29;20067;-79
2022/06/22 02:30:45;;;;;;;5.85;4.47;;;;;;;;;;4837361;29;20140;-78
2022/06/22 02:33:13;;;;;;;7.47;4.32;;;;;;;;;;4825543;29;20049;-78
2022/06/22 02:35:41;;;;;;;5.50;4.03;;;;;;;;;;4856365;29;20041;-79
2022/06/22 02:38:10;;;;;;;4.65;3.70;;;;;;;;;;4858868;29;20084;-78
2022/06/22 02:44:29;;;;;;;4.22;3.80;;;;;;;;;;4839914;29;20561;-77
2022/06/22 02:46:16;;;;;;;4.72;3.92;;;;;;;;;;4857107;29;20450;-78
2022/06/22 02:48:45;;;;;;;5.47;4.13;;;;;;;;;;4825676;29;20059;-78
2022/06/22 02:51:12;;;;;;;4.68;4.07;;;;;;;;;;4853009;29;20485;-78
2022/06/22 02:53:41;;;;;;;4.95;4.03;;;;;;;;;;4856139;29;20045;-77
2022/06/22 02:56:30;;;;;;;5.60;3.97;;;;;;;;;;4842649;29;20267;-77
2022/06/22 02:58:58;;;;;;;4.30;4.00;;;;;;;;;;4843114;29;20183;-77
2022/06/22 03:01:28;;;;;;;7.32;3.60;;;;;;;;;;4860562;29;20473;-78
2022/06/22 03:03:57;;;;;;;4.85;3.70;;;;;;;;;;4856350;29;20037;-77
2022/06/22 03:06:28;;;;;;;4.57;4.05;;;;;;;;;;4839807;29;20048;-77
2022/06/22 03:08:57;;;;;;;4.57;4.15;;;;;;;;;;4842273;29;20295;-78
2022/06/22 03:11:25;;;;;;;4.18;3.60;;;;;;;;;;4867438;29;20068;-77
2022/06/22 03:13:55;;;;;;;4.28;3.88;;;;;;;;;;4857193;29;20678;-77
2022/06/22 03:16:26;;;;;;;9.82;3.70;;;;;;;;;;4864955;29;20049;-77
2022/06/22 03:18:55;;;;;;;5.53;3.45;;;;;;;;;;4864419;29;20060;-79
2022/06/22 03:21:22;;;;;;;4.32;3.35;;;;;;;;;;4840416;29;20052;-79
2022/06/22 03:23:56;;;;;;;3.92;3.25;;;;;;;;;;4858953;29;20484;-79
2022/06/22 03:26:26;;;;;;;4.47;3.38;;;;;;;;;;4839703;29;20048;-77
2022/06/22 03:29:17;;;;;;;4.63;3.30;;;;;;;;;;4824827;29;20053;-78
2022/06/22 03:31:47;;;;;;;3.90;3.28;;;;;;;;;;4858012;29;20041;-79
2022/06/22 03:34:19;;;;;;;7.13;3.20;;;;;;;;;;4843797;29;20132;-78
2022/06/22 03:36:50;;;;;;;3.15;2.95;;;;;;;;;;4856293;29;20050;-79
2022/06/22 03:39:19;;;;;;;3.65;2.90;;;;;;;;;;4835885;29;20053;-78
2022/06/22 03:41:48;;;;;;;3.20;3.00;;;;;;;;;;4855024;29;20459;-79
2022/06/22 03:44:18;;;;;;;2.97;2.78;;;;;;;;;;4859336;29;20101;-79
2022/06/22 03:46:48;;;;;;;2.88;2.60;;;;;;;;;;4854184;29;20452;-79
2022/06/22 03:49:19;;;;;;;2.97;2.78;;;;;;;;;;4854735;29;20042;-79
2022/06/22 03:51:49;;;;;;;4.53;3.03;;;;;;;;;;4865084;29;20077;-79
2022/06/22 03:54:20;;;;;;;3.30;2.97;;;;;;;;;;4854158;29;20140;-79
2022/06/22 03:56:54;;;;;;;3.10;2.80;;;;;;;;;;4847693;29;20498;-79
2022/06/22 03:59:21;;;;;;;2.75;2.50;;;;;;;;;;4839665;29;20053;-79
2022/06/22 04:01:49;;;;;;;3.00;2.80;;;;;;;;;;4858227;29;20377;-79
2022/06/22 04:04:16;;;;;;;4.57;2.72;;;;;;;;;;4855447;29;20062;-79
2022/06/22 04:06:49;;;;;;;2.90;2.70;;;;;;;;;;4856995;29;20788;-79
2022/06/22 04:09:21;;;;;;;2.60;2.40;;;;;;;;;;4857525;29;20048;-78
2022/06/22 04:11:54;;;;;;;2.80;2.60;;;;;;;;;;4848003;29;20046;-79
2022/06/22 04:14:42;;;;;;;2.50;2.30;;;;;;;;;;4855476;29;20397;-79
2022/06/22 04:17:11;;;;;;;2.50;2.30;;;;;;;;;;4845882;29;20053;-78
2022/06/22 04:19:48;;;;;;;3.97;2.58;;;;;;;;;;4835783;29;20744;-79
2022/06/22 04:22:18;;;;;;;2.90;2.70;;;;;;;;;;4851567;29;20080;-80
2022/06/22 04:24:51;;;;;;;6.38;3.10;;;;;;;;;;4856873;29;20112;-81
2022/06/22 04:27:23;;;;;;;5.10;2.80;;;;;;;;;;4849538;29;20060;-83
2022/06/22 04:30:03;;;;;;;5.15;2.70;;;;;;;;;;4821444;29;20050;-81
2022/06/22 04:32:31;;;;;;;4.95;2.55;;;;;;;;;;4829032;29;20033;-81
2022/06/22 04:34:59;;;;;;;5.03;2.58;;;;;;;;;;4870962;29;20069;-81
2022/06/22 04:37:34;;;;;;;8.40;2.55;;;;;;;;;;4838691;29;20046;-81
2022/06/22 04:40:17;;;;;;;3.38;2.75;;;;;;;;;;4865578;29;20405;-80
2022/06/22 04:42:45;;;;;;;4.05;2.33;;;;;;;;;;4830907;29;20518;-79
2022/06/22 04:45:28;;;;;;;2.28;2.10;;;;;;;;;;4832420;29;20045;-81
2022/06/22 04:48:03;;;;;;;4.40;2.40;;;;;;;;;;4837529;29;20517;-80
2022/06/22 04:50:31;;;;;;;5.32;2.30;;;;;;;;;;4864666;29;20046;-80
2022/06/22 04:53:00;;;;;;;2.15;1.95;;;;;;;;;;4850816;29;20124;-80
2022/06/22 04:55:28;;;;;;;3.40;2.20;;;;;;;;;;4857319;29;20045;-81
2022/06/22 04:57:57;;;;;;;4.10;2.40;;;;;;;;;;4838660;29;20136;-80
2022/06/22 05:00:26;;;;;;;3.53;2.20;;;;;;;;;;4843316;29;20094;-82
2022/06/22 05:03:10;;;;;;;4.40;2.33;;;;;;;;;;4839066;29;20069;-78
2022/06/22 05:05:38;;;;;;;2.15;2.00;;;;;;;;;;4848194;29;20439;-81
2022/06/22 05:08:18;;;;;;;3.00;1.70;;;;;;;;;;4840245;29;20044;-79
2022/06/22 05:11:06;;;;;;;3.33;2.00;;;;;;;;;;4851275;29;20395;-80
2022/06/22 05:13:35;;;;;;;4.32;2.30;;;;;;;;;;4848960;29;20078;-81
2022/06/22 05:16:04;;;;;;;2.88;2.40;;;;;;;;;;4839899;29;20124;-80
2022/06/22 05:18:37;;;;;;;2.20;2.00;;;;;;;;;;4869594;29;20045;-80
2022/06/22 05:21:33;;;;;;;2.22;2.03;;;;;;;;;;4849831;29;20108;-81
2022/06/22 05:24:05;;;;;;;4.05;2.15;;;;;;;;;;4841680;29;20052;-78
2022/06/22 05:26:34;;;;;;;5.22;1.90;;;;;;;;;;4866055;29;20129;-80
2022/06/22 05:29:13;;;;;;;3.97;1.77;;;;;;;;;;4874100;29;20045;-78
2022/06/22 05:31:44;;;;;;;2.58;1.65;;;;;;;;;;4858821;29;20475;-78
2022/06/22 05:34:17;;;;;;;3.17;2.30;;;;;;;;;;4861524;29;20037;-78
2022/06/22 05:36:47;;;;;;;2.40;2.20;;;;;;;;;;4854475;29;20133;-78
2022/06/22 05:39:14;;;;;;;2.75;2.08;;;;;;;;;;4846024;24;20481;-77
2022/06/22 05:41:44;;;;;;;2.40;2.20;;;;;;;;;;4848804;29;20077;-77
2022/06/22 05:44:14;;;;;;;3.50;1.90;;;;;;;;;;4849019;29;20042;-76
2022/06/22 05:46:46;;;;;;;8.02;6.57;;;;;;;;;;4849368;29;20076;-77
2022/06/22 05:49:16;;;;;;;3.55;2.17;;;;;;;;;;4848424;29;20410;-77
2022/06/22 05:51:53;;;;;;;3.22;2.00;;;;;;;;;;4839607;29;20125;-77
2022/06/22 05:54:28;;;;;;;3.35;2.50;;;;;;;;;;4848792;29;20136;-76
2022/06/22 05:57:15;;;;;;;2.70;2.13;;;;;;;;;;4837507;29;20559;-77
2022/06/22 05:59:49;;;;;;;1.80;1.70;;;;;;;;;;4849610;29;20195;-77
2022/06/22 06:02:22;;;;;;;3.13;1.77;;;;;;;;;;4835495;29;20049;-77
2022/06/22 06:05:06;;;;;;;1.70;1.60;;;;;;;;;;4853655;29;20037;-77
2022/06/22 06:07:38;;;;;;;2.08;1.88;;;;;;;;;;4835654;29;20034;-77
2022/06/22 06:10:10;;;;;;;3.60;1.75;;;;;;;;;;4856954;29;20038;-77
2022/06/22 06:12:40;;;;;;;1.70;1.60;;;;;;;;;;4830732;29;20046;-77
2022/06/22 06:15:11;;;;;;;4.93;2.47;;;;;;;;;;4847477;29;20049;-77
2022/06/22 06:17:46;;;;;;;3.40;1.60;;;;;;;;;;4852643;29;20136;-77
2022/06/22 06:20:21;;;;;;;1.63;1.52;;;;;;;;;;4845280;29;20049;-77
2022/06/22 06:22:53;;;;;;;4.10;1.63;;;;;;;;;;4829113;29;20053;-77
2022/06/22 06:28:18;;;;;;;;;;;;;;;;;;4853443;29;20141;-77
2022/06/22 06:30:47;;;;;;;3.25;1.48;;;;;;;;;;4850822;29;20011;-77
2022/06/22 06:33:22;;;;;;;2.28;1.55;;;;;;;;;;4854465;29;20497;-77
2022/06/22 06:35:52;;;;;;;2.13;1.40;;;;;;;;;;4837418;29;20045;-79
2022/06/22 06:38:26;;;;;;;1.40;1.30;;;;;;;;;;4867914;29;20045;-78
2022/06/22 06:41:11;;;;;;;1.77;1.40;;;;;;;;;;4844384;29;20057;-81
2022/06/22 06:43:49;;;;;;;1.98;1.50;;;;;;;;;;4853675;29;20048;-82
2022/06/22 06:46:36;;;;;;;1.83;1.50;;;;;;;;;;4864892;29;20077;-79
2022/06/22 06:49:36;;;;;;;2.33;1.40;;;;;;;;;;4836093;29;20681;-78
2022/06/22 06:52:07;;;;;;;1.60;1.50;;;;;;;;;;4811251;29;20113;-81
2022/06/22 06:54:34;;;;;;;4.03;1.65;;;;;;;;;;4817828;29;20187;-79
2022/06/22 06:57:08;;;;;;;2.65;1.70;;;;;;;;;;4836345;29;20318;-78
2022/06/22 06:59:35;;;;;;;3.90;1.48;;;;;;;;;;4843685;29;20038;-77
2022/06/22 07:02:10;;;;;;;1.70;1.40;;;;;;;;;;4854803;29;20212;-78
2022/06/22 07:04:38;;;;;;;1.70;1.60;;;;;;;;;;4850168;29;20613;-79
2022/06/22 07:07:05;;;;;;;2.55;1.40;;;;;;;;;;4847425;29;20060;-78
2022/06/22 07:09:35;;;;;;;3.28;1.55;;;;;;;;;;4848656;29;20625;-79
2022/06/22 07:12:21;;;;;;;2.55;1.70;;;;;;;;;;4837735;29;20460;-80
2022/06/22 07:14:48;;;;;;;5.85;1.65;;;;;;;;;;4849679;29;20121;-80
2022/06/22 07:17:17;;;;;;;1.73;1.60;;;;;;;;;;4847184;29;20129;-79
2022/06/22 07:19:45;;;;;;;2.88;1.63;;;;;;;;;;4853689;29;20133;-79
2022/06/22 07:22:18;;;;;;;2.45;1.55;;;;;;;;;;4869053;29;20152;-77
2022/06/22 07:24:45;;;;;;;2.50;1.70;;;;;;;;;;4860432;29;20049;-80
2022/06/22 07:27:19;;;;;;;6.95;1.88;;;;;;;;;;4871953;29;20603;-80
2022/06/22 07:29:49;;;;;;;2.45;1.70;;;;;;;;;;4841717;29;20125;-78
2022/06/22 07:32:29;;;;;;;1.90;1.80;;;;;;;;;;4849904;29;20137;-79
2022/06/22 07:35:05;;;;;;;4.63;2.00;;;;;;;;;;4854989;29;20132;-81
2022/06/22 07:37:38;;;;;;;1.58;1.48;;;;;;;;;;4853191;29;20227;-78
2022/06/22 07:40:14;;;;;;;4.75;1.77;;;;;;;;;;4845242;29;20053;-80
2022/06/22 07:42:41;;;;;;;1.90;1.80;;;;;;;;;;4829992;29;20124;-78
2022/06/22 07:45:14;;;;;;;5.30;1.85;;;;;;;;;;4863087;29;20072;-80
2022/06/22 07:47:44;;;;;;;1.60;1.50;;;;;;;;;;4829434;29;20049;-78
2022/06/22 07:50:17;;;;;;;3.20;1.70;;;;;;;;;;4846509;29;20044;-80
2022/06/22 07:52:51;;;;;;;2.22;1.60;;;;;;;;;;4835765;29;20505;-77
2022/06/22 07:55:31;;;;;;;4.55;1.60;;;;;;;;;;4864033;29;20080;-77
2022/06/22 07:58:08;;;;;;;2.83;1.60;;;;;;;;;;4851359;29;20060;-81
2022/06/22 08:00:39;;;;;;;4.03;1.80;;;;;;;;;;4842362;29;20053;-77
2022/06/22 08:03:06;;;;;;;4.70;2.00;;;;;;;;;;4848086;29;20088;-80
2022/06/22 08:05:42;;;;;;;4.10;1.80;;;;;;;;;;4850879;29;20522;-77
2022/06/22 08:08:22;;;;;;;2.10;1.90;;;;;;;;;;4856452;29;20060;-78
2022/06/22 08:10:56;;;;;;;4.03;1.65;;;;;;;;;;4852999;29;20402;-78
2022/06/22 08:13:25;;;;;;;3.80;2.05;;;;;;;;;;4865177;29;20571;-79
2022/06/22 08:15:55;;;;;;;2.40;1.80;;;;;;;;;;4855079;29;20522;-81
2022/06/22 08:18:22;;;;;;;7.05;1.80;;;;;;;;;;4857891;29;21243;-79
2022/06/22 08:20:51;;;;;;;4.55;1.80;;;;;;;;;;4842628;29;20402;-80
2022/06/22 08:23:20;;;;;;;2.55;1.40;;;;;;;;;;4844201;29;20049;-79
2022/06/22 08:26:00;;;;;;;6.43;1.60;;;;;;;;;;4851920;29;20367;-77
2022/06/22 08:28:29;;;;;;;4.32;1.50;;;;;;;;;;4861305;29;20062;-79
2022/06/22 08:30:57;;;;;;;2.58;1.90;;;;;;;;;;4856890;29;20053;-78
2022/06/22 08:33:33;;;;;;;3.88;1.55;;;;;;;;;;4863618;29;20128;-78
2022/06/22 08:36:11;;;;;;;2.72;1.75;;;;;;;;;;4827401;29;20049;-79
2022/06/22 08:38:42;;;;;;;3.85;1.70;;;;;;;;;;4860993;29;20406;-81
2022/06/22 08:41:18;;;;;;;4.00;1.60;;;;;;;;;;4837159;29;20065;-79
2022/06/22 08:43:55;;;;;;;1.95;1.65;;;;;;;;;;4852957;29;20085;-76
2022/06/22 08:46:29;;;;;;;5.82;1.50;;;;;;;;;;4854562;29;21648;-79
2022/06/22 08:49:06;;;;;;;2.20;1.50;;;;;;;;;;4863588;29;20075;-80
2022/06/22 08:51:52;;;;;;;6.32;1.60;;;;;;;;;;4857842;29;20037;-77
2022/06/22 08:54:28;;;;;;;3.40;1.48;;;;;;;;;;4838576;29;20069;-77
2022/06/22 08:57:01;;;;;;;1.95;1.60;;;;;;;;;;4852537;29;20515;-81
2022/06/22 08:59:32;;;;;;;5.05;1.80;;;;;;;;;;4850737;29;20156;-79
2022/06/22 09:02:22;;;;;;;1.60;1.43;;;;;;;;;;4837389;29;20525;-80
2022/06/22 09:05:06;;;;;;;5.30;4.65;;;;;;;;;;4852867;29;20049;-77
2022/06/22 09:07:44;;;;;;;3.13;2.60;;;;;;;;;;4836961;29;20073;-80
2022/06/22 09:10:30;;;;;;;2.67;1.95;;;;;;;;;;4836006;29;20131;-77
2022/06/22 09:13:06;;;;;;;3.28;2.00;;;;;;;;;;4864719;29;20049;-79
2022/06/22 09:15:57;;;;;;;1.70;1.60;;;;;;;;;;4860382;29;20050;-77
2022/06/22 09:18:48;;;;;;;2.63;1.65;;;;;;;;;;4845542;29;20331;-80
2022/06/22 09:21:19;;;;;;;5.40;1.77;;;;;;;;;;4868345;29;20045;-75
2022/06/22 09:23:46;;;;;;;2.95;1.88;;;;;;;;;;4855055;29;20433;-79
2022/06/22 09:26:32;;;;;;;5.80;2.00;;;;;;;;;;4853658;29;20065;-79
2022/06/22 09:29:23;;;;;;;1.77;1.52;;;;;;;;;;4855479;29;20094;-78
2022/06/22 09:31:50;;;;;;;2.70;1.88;;;;;;;;;;4836923;29;20408;-77
2022/06/22 09:34:30;;;;;;;3.22;1.80;;;;;;;;;;4855479;29;20498;-79
2022/06/22 09:37:05;;;;;;;5.22;1.50;;;;;;;;;;4839711;29;20037;-82
2022/06/22 09:39:57;;;;;;;2.38;1.80;;;;;;;;;;4856890;29;20068;-80
2022/06/22 09:42:30;;;;;;;2.45;1.52;;;;;;;;;;4862263;29;20564;-80
2022/06/22 09:45:08;;;;;;;2.58;2.10;;;;;;;;;;4866932;29;20037;-78
2022/06/22 09:47:41;;;;;;;6.35;2.30;;;;;;;;;;4855654;29;20465;-78
2022/06/22 09:50:24;;;;;;;2.33;1.70;;;;;;;;;;4864070;29;20148;-79
2022/06/22 09:53:16;;;;;;;3.10;1.70;;;;;;;;;;4849005;29;20109;-78
2022/06/22 09:58:57;;;;;;;3.38;1.70;;;;;;;;;;4861331;29;20045;-80
2022/06/22 10:01:31;;;;;;;2.10;1.88;;;;;;;;;;4861307;29;20149;-78
2022/06/22 10:03:58;;;;;;;2.15;1.95;;;;;;;;;;4867270;29;20072;-78
2022/06/22 10:06:32;;;;;;;4.82;2.30;;;;;;;;;;4862244;29;20056;-79
2022/06/22 10:09:10;;;;;;;4.05;1.60;;;;;;;;;;4862528;29;20045;-80
2022/06/22 10:11:44;;;;;;;3.17;1.80;;;;;;;;;;4858202;29;20041;-79
2022/06/22 10:14:13;;;;;;;6.25;1.70;;;;;;;;;;4861761;29;20054;-78
2022/06/22 10:16:52;;;;;;;2.05;1.55;;;;;;;;;;4844979;29;20042;-80
2022/06/22 10:19:20;;;;;;;4.57;1.60;;;;;;;;;;4860625;29;20038;-77
2022/06/22 10:21:56;;;;;;;1.92;1.50;;;;;;;;;;4861608;29;20133;-78
2022/06/22 10:24:42;;;;;;;2.65;1.92;;;;;;;;;;4858603;29;20128;-78
2022/06/22 10:27:16;;;;;;;4.28;1.90;;;;;;;;;;4851686;29;20078;-78
2022/06/22 10:30:04;;;;;;;3.70;1.50;;;;;;;;;;4861714;29;20045;-79
2022/06/22 10:32:50;;;;;;;4.15;1.90;;;;;;;;;;4860613;29;20108;-78
2022/06/22 10:35:24;;;;;;;2.95;1.42;;;;;;;;;;4865001;29;20073;-78
2022/06/22 10:38:06;;;;;;;3.92;1.90;;;;;;;;;;4861735;29;20105;-82
2022/06/22 10:46:55;;;;;;;1.90;1.55;;;;;;;;;;4857866;29;20053;-77
2022/06/22 10:49:41;;;;;;;1.80;1.63;;;;;;;;;;4853854;29;20043;-79
2022/06/22 10:52:47;;;;;;;3.95;2.00;;;;;;;;;;4844972;29;20049;-77
2022/06/22 10:55:28;;;;;;;2.33;1.70;;;;;;;;;;4793515;29;20924;-79
2022/06/22 10:58:05;;;;;;;2.47;1.63;;;;;;;;;;4793184;29;20123;-81
2022/06/22 11:00:51;;;;;;;4.75;1.73;;;;;;;;;;4838072;29;20136;-77
2022/06/22 11:03:36;;;;;;;8.65;2.10;;;;;;;;;;4859330;29;20038;-79
2022/06/22 11:06:39;;;;;;;2.03;1.73;;;;;;;;;;4859054;29;20778;-77
2022/06/22 11:09:36;;;;;;;5.30;1.60;;;;;;;;;;4762836;29;20232;-79
2022/06/22 11:12:27;;;;;;;1.92;1.50;;;;;;;;;;4747053;29;20502;-79
2022/06/22 11:14:59;;;;;;;3.75;1.88;;;;;;;;;;4851136;29;20118;-81
2022/06/22 11:17:26;;;;;;;2.42;1.77;;;;;;;;;;4845516;29;20510;-78
2022/06/22 11:20:08;;;;;;;4.38;2.00;;;;;;;;;;4857847;29;20045;-81
2022/06/22 11:22:43;;;;;;;1.75;1.55;;;;;;;;;;4857917;29;20041;-80
2022/06/22 11:25:13;;;;;;;2.30;1.88;;;;;;;;;;4866291;29;20068;-78
2022/06/22 11:30:51;;;;;;;2.75;1.70;;;;;;;;;;4867913;29;20147;-79
2022/06/22 11:33:34;;;;;;;3.63;2.30;;;;;;;;;;4847914;29;20045;-80
2022/06/22 11:36:22;;;;;;;4.10;1.63;;;;;;;;;;4858963;29;20049;-79
2022/06/22 11:38:49;;;;;;;4.25;1.60;;;;;;;;;;4860073;29;20073;-78
2022/06/22 11:41:23;;;;;;;4.82;1.88;;;;;;;;;;4856648;29;20053;-81
2022/06/22 11:44:09;;;;;;;5.60;1.80;;;;;;;;;;4854769;29;20045;-78
2022/06/22 11:46:47;;;;;;;6.72;1.88;;;;;;;;;;4844063;29;20057;-78
2022/06/22 11:49:33;;;;;;;5.25;2.58;;;;;;;;;;4831548;29;20079;-78
2022/06/22 11:52:01;;;;;;;2.67;1.70;;;;;;;;;;4857315;29;20694;-77
2022/06/22 11:54:31;;;;;;;4.63;1.83;;;;;;;;;;4858002;29;20052;-78
2022/06/22 11:57:00;;;;;;;3.45;1.45;;;;;;;;;;4848503;29;20046;-78
2022/06/22 11:59:28;;;;;;;2.78;1.60;;;;;;;;;;4857835;29;20049;-80
2022/06/22 12:02:00;;;;;;;5.32;1.67;;;;;;;;;;4848768;29;20503;-79
2022/06/22 12:04:46;;;;;;;1.60;1.50;;;;;;;;;;4849903;29;20514;-80
2022/06/22 12:07:34;;;;;;;4.38;1.75;;;;;;;;;;4854459;29;20086;-80
2022/06/22 12:10:20;;;;;;;4.10;1.73;;;;;;;;;;4848053;29;20072;-78
2022/06/22 12:12:48;;;;;;;5.53;1.92;;;;;;;;;;4846575;29;20058;-79
2022/06/22 12:15:16;;;;;;;8.63;1.88;;;;;;;;;;4833026;29;20077;-82
2022/06/22 12:17:46;;;;;;;3.67;2.15;;;;;;;;;;4838923;29;20060;-80
2022/06/22 12:20:14;;;;;;;3.05;1.77;;;;;;;;;;4858614;29;20049;-79
2022/06/22 12:22:48;;;;;;;2.22;2.00;;;;;;;;;;4856243;29;20508;-79
2022/06/22 12:25:25;;;;;;;3.03;1.45;;;;;;;;;;4822792;29;20134;-80
2022/06/22 12:28:05;;;;;;;4.07;2.30;;;;;;;;;;4838306;29;20652;-80
2022/06/22 12:30:42;;;;;;;2.15;1.60;;;;;;;;;;4839705;29;20448;-80
2022/06/22 12:33:28;;;;;;;2.25;1.58;;;;;;;;;;4845314;29;20503;-80
2022/06/22 12:36:19;;;;;;;3.72;1.45;;;;;;;;;;4825393;29;20049;-79
2022/06/22 12:38:52;;;;;;;4.30;1.80;;;;;;;;;;4855991;29;20259;-77
2022/06/22 12:41:36;;;;;;;4.40;2.00;;;;;;;;;;4853144;29;20069;-80
2022/06/22 12:44:22;;;;;;;3.80;1.65;;;;;;;;;;4848381;29;20571;-81
2022/06/22 12:46:49;;;;;;;2.90;1.52;;;;;;;;;;4846715;29;20045;-79
2022/06/22 12:49:25;;;;;;;6.90;1.40;;;;;;;;;;4850132;29;20144;-80
2022/06/22 12:52:01;;;;;;;2.22;1.80;;;;;;;;;;4856293;29;20105;-77
2022/06/22 12:54:32;;;;;;;1.70;1.60;;;;;;;;;;4855155;29;20049;-77
2022/06/22 12:57:09;;;;;;;3.05;2.08;;;;;;;;;;4854970;29;20120;-80
2022/06/22 12:59:37;;;;;;;2.47;2.10;;;;;;;;;;4854229;29;20060;-78
2022/06/22 13:02:06;;;;;;;4.10;1.80;;;;;;;;;;4853803;29;20799;-81
2022/06/22 13:04:36;;;;;;;3.35;2.05;;;;;;;;;;4850557;29;20306;-81
2022/06/22 13:07:06;;;;;;;5.75;1.80;;;;;;;;;;4836964;29;20045;-81
2022/06/22 13:09:34;;;;;;;3.35;1.95;;;;;;;;;;4854621;29;20541;-81
2022/06/22 13:12:04;;;;;;;3.38;2.00;;;;;;;;;;4850759;29;20049;-79
2022/06/22 13:14:53;;;;;;;2.10;1.90;;;;;;;;;;4845988;29;20050;-77
2022/06/22 13:17:30;;;;;;;4.95;2.00;;;;;;;;;;4847429;29;20421;-80
2022/06/22 13:20:07;;;;;;;4.20;1.98;;;;;;;;;;4843499;29;20426;-79
2022/06/22 13:22:52;;;;;;;3.15;2.10;;;;;;;;;;4852272;29;20042;-81
2022/06/22 13:25:31;;;;;;;2.90;2.20;;;;;;;;;;4854478;29;20356;-76
2022/06/22 13:28:19;;;;;;;3.45;2.20;;;;;;;;;;4858626;29;20049;-83
2022/06/22 13:30:58;;;;;;;2.35;2.00;;;;;;;;;;4857416;29;20100;-82
2022/06/22 13:33:44;;;;;;;2.65;2.08;;;;;;;;;;4841082;29;20120;-78
2022/06/22 13:36:15;;;;;;;3.28;1.90;;;;;;;;;;4845715;29;20141;-79
2022/06/22 13:38:59;;;;;;;2.93;2.20;;;;;;;;;;4849465;29;20502;-76
2022/06/22 13:41:45;;;;;;;3.90;2.10;;;;;;;;;;4848018;29;20790;-78
2022/06/22 13:44:34;;;;;;;5.40;2.50;;;;;;;;;;4855749;29;20072;-78
2022/06/22 13:47:04;;;;;;;3.63;2.20;;;;;;;;;;4851445;29;20502;-78
2022/06/22 13:49:35;;;;;;;2.47;2.20;;;;;;;;;;4857757;29;20664;-79
2022/06/22 13:52:15;;;;;;;6.97;2.50;;;;;;;;;;4856985;29;20111;-78
2022/06/22 13:54:45;;;;;;;3.38;2.35;;;;;;;;;;4853309;29;20105;-79
2022/06/22 13:57:17;;;;;;;5.95;2.60;;;;;;;;;;4837242;29;20045;-77
2022/06/22 13:59:58;;;;;;;4.78;2.60;;;;;;;;;;4841470;29;20053;-80
2022/06/22 14:02:39;;;;;;;6.22;2.50;;;;;;;;;;4852592;29;20072;-80
2022/06/22 14:05:10;;;;;;;11.95;2.90;;;;;;;;;;4849515;29;20053;-79
2022/06/22 14:07:37;;;;;;;4.13;2.47;;;;;;;;;;4851923;29;20053;-80
2022/06/22 14:10:18;;;;;;;4.07;2.17;;;;;;;;;;4849021;29;20044;-78
2022/06/22 14:13:25;;;;;;;4.60;2.55;;;;;;;;;;4858483;29;20410;-81
2022/06/22 14:15:59;;;;;;;2.28;2.17;;;;;;;;;;4852199;29;20045;-78
2022/06/22 14:18:31;;;;;;;2.60;2.40;;;;;;;;;;4855688;29;20045;-79
2022/06/22 14:21:01;;;;;;;3.05;2.35;;;;;;;;;;4851816;29;20093;-81
2022/06/22 14:23:35;;;;;;;2.70;2.30;;;;;;;;;;4852385;29;20057;-81
2022/06/22 14:26:20;;;;;;;4.15;2.53;;;;;;;;;;4848639;29;20052;-81
2022/06/22 14:28:57;;;;;;;5.65;2.40;;;;;;;;;;4851598;29;20057;-80
2022/06/22 14:31:28;;;;;;;6.57;2.13;;;;;;;;;;4857357;29;20037;-77
2022/06/22 14:34:19;;;;;;;4.22;2.28;;;;;;;;;;4858864;29;20131;-78
2022/06/22 14:37:20;;;;;;;6.18;2.75;;;;;;;;;;4849626;29;20289;-81
2022/06/22 14:39:53;;;;;;;;;;;;;;;;;;4855700;29;20162;-76
2022/06/22 14:42:31;;;;;;;3.95;1.98;;;;;;;;;;4857457;29;20474;-80
2022/06/22 14:44:59;;;;;;;4.68;2.40;;;;;;;;;;4851351;29;20049;-78
2022/06/22 14:47:44;;;;;;;3.47;2.33;;;;;;;;;;4850379;29;20072;-79
2022/06/22 14:50:20;;;;;;;4.05;2.33;;;;;;;;;;4851841;29;20136;-81
2022/06/22 14:53:06;;;;;;;4.93;2.80;;;;;;;;;;4854117;29;20159;-76
2022/06/22 14:55:34;;;;;;;3.50;2.70;;;;;;;;;;4853429;29;20053;-80
2022/06/22 14:58:17;;;;;;;5.10;2.28;;;;;;;;;;4854782;29;20505;-81
2022/06/22 15:01:10;;;;;;;5.65;2.63;;;;;;;;;;4857916;29;20525;-77
2022/06/22 15:03:39;;;;;;;3.40;2.30;;;;;;;;;;4854726;29;20085;-79
2022/06/22 15:06:27;;;;;;;4.25;2.58;;;;;;;;;;4835486;29;20056;-79
2022/06/22 15:09:07;;;;;;;6.43;2.33;;;;;;;;;;4837769;29;20054;-78
2022/06/22 15:14:43;;;;;;;3.67;2.30;;;;;;;;;;4856014;29;20050;-79
2022/06/22 15:17:31;;;;;;;2.92;2.20;;;;;;;;;;4856548;29;20052;-77
2022/06/22 15:20:06;;;;;;;6.28;2.30;;;;;;;;;;4838245;29;20137;-79
2022/06/22 15:22:42;;;;;;;5.15;2.20;;;;;;;;;;4857619;29;20049;-77
2022/06/22 15:25:38;;;;;;;4.80;2.10;;;;;;;;;;4858596;29;20189;-81
2022/06/22 15:28:22;;;;;;;2.70;2.15;;;;;;;;;;4856369;29;20049;-80
2022/06/22 15:30:51;;;;;;;4.72;2.70;;;;;;;;;;4837929;29;20050;-80
2022/06/22 15:33:26;;;;;;;4.53;1.92;;;;;;;;;;4857685;29;20041;-80
2022/06/22 15:35:56;;;;;;;7.10;2.30;;;;;;;;;;4856387;29;20041;-81
2022/06/22 15:38:36;;;;;;;5.13;2.42;;;;;;;;;;4855536;29;20569;-78
2022/06/22 15:41:23;;;;;;;3.45;2.33;;;;;;;;;;4844712;29;20093;-78
2022/06/22 15:44:11;;;;;;;8.05;2.50;;;;;;;;;;4849894;29;20165;-76
2022/06/22 15:46:44;;;;;;;5.82;2.40;;;;;;;;;;4851897;29;20069;-78
2022/06/22 15:49:18;;;;;;;3.05;2.20;;;;;;;;;;4856050;29;20541;-76
2022/06/22 15:51:51;;;;;;;5.80;2.45;;;;;;;;;;4847442;29;20046;-80
2022/06/22 15:54:38;;;;;;;3.33;2.22;;;;;;;;;;4827764;29;20512;-78
2022/06/22 15:57:08;;;;;;;2.38;2.10;;;;;;;;;;4834695;29;20049;-80
2022/06/22 15:59:36;;;;;;;4.20;2.30;;;;;;;;;;4849612;29;20310;-81